Time;durP1;ratioP1;P1;durP2;ratioP2;P2;SDS_P1;SDS_P2;PMS_P1;PMS_P2;Temp;Humidity;BMP_temperature;BMP_pressure;BME280_temperature;BME280_humidity;BME280_pressure;Samples;Min_cycle;Max_cycle;Signal;HPM_P1;HPM_P2
2022/06/11 00:01:46;;;;;;;2.55;1.60;;;;;;;;;;5096219;28;20044;-72
2022/06/11 00:04:15;;;;;;;5.43;1.70;;;;;;;;;;5095523;28;20479;-73
2022/06/11 00:06:44;;;;;;;3.72;1.80;;;;;;;;;;5095620;28;20044;-72
2022/06/11 00:09:11;;;;;;;5.75;1.70;;;;;;;;;;5095528;28;20035;-72
2022/06/11 00:11:37;;;;;;;4.57;1.92;;;;;;;;;;5095677;28;20467;-73
2022/06/11 00:14:04;;;;;;;3.20;1.50;;;;;;;;;;5095154;28;20036;-73
2022/06/11 00:16:30;;;;;;;5.00;1.75;;;;;;;;;;5095953;28;20481;-73
2022/06/11 00:18:57;;;;;;;3.58;1.63;;;;;;;;;;5094944;28;20039;-73
2022/06/11 00:21:25;;;;;;;5.93;1.90;;;;;;;;;;5095064;28;20074;-73
2022/06/11 00:23:51;;;;;;;4.55;1.80;;;;;;;;;;5095688;28;20067;-72
2022/06/11 00:26:17;;;;;;;5.40;2.10;;;;;;;;;;5094904;28;20063;-73
2022/06/11 00:28:44;;;;;;;3.85;2.10;;;;;;;;;;5094427;28;20044;-72
2022/06/11 00:31:10;;;;;;;5.03;1.98;;;;;;;;;;5094788;28;20042;-73
2022/06/11 00:33:37;;;;;;;2.50;1.70;;;;;;;;;;5094729;28;20475;-72
2022/06/11 00:36:05;;;;;;;3.75;1.75;;;;;;;;;;5094846;28;20036;-73
2022/06/11 00:38:31;;;;;;;5.75;2.17;;;;;;;;;;5094897;28;20052;-72
2022/06/11 00:40:57;;;;;;;4.65;1.83;;;;;;;;;;5095215;28;20035;-73
2022/06/11 00:43:24;;;;;;;5.03;2.10;;;;;;;;;;5094609;28;20036;-73
2022/06/11 00:45:50;;;;;;;2.72;1.92;;;;;;;;;;5094957;28;20036;-73
2022/06/11 00:48:46;;;;;;;5.60;1.83;;;;;;;;;;5094735;28;20077;-72
2022/06/11 00:51:14;;;;;;;4.32;2.08;;;;;;;;;;5081257;28;20040;-72
2022/06/11 00:53:46;;;;;;;4.07;1.70;;;;;;;;;;5094801;28;20036;-72
2022/06/11 00:56:16;;;;;;;3.40;1.40;;;;;;;;;;5094827;28;20047;-73
2022/06/11 00:58:45;;;;;;;3.28;1.83;;;;;;;;;;5095386;28;20059;-72
2022/06/11 01:01:13;;;;;;;2.17;1.83;;;;;;;;;;5095001;28;20040;-73
2022/06/11 01:03:41;;;;;;;3.92;1.83;;;;;;;;;;5095186;28;20064;-73
2022/06/11 01:06:16;;;;;;;5.80;1.70;;;;;;;;;;5094214;28;20031;-73
2022/06/11 01:08:48;;;;;;;5.85;2.03;;;;;;;;;;5095109;28;20047;-73
2022/06/11 01:11:33;;;;;;;3.92;1.75;;;;;;;;;;5094953;28;20039;-73
2022/06/11 01:14:05;;;;;;;2.88;1.77;;;;;;;;;;5094633;28;20032;-72
2022/06/11 01:16:44;;;;;;;3.50;1.80;;;;;;;;;;5095060;28;20066;-73
2022/06/11 01:19:13;;;;;;;4.05;1.90;;;;;;;;;;5094854;28;20044;-72
2022/06/11 01:22:09;;;;;;;3.92;2.13;;;;;;;;;;5094731;28;20105;-72
2022/06/11 01:24:41;;;;;;;4.43;1.90;;;;;;;;;;5039838;28;20040;-73
2022/06/11 01:27:29;;;;;;;3.00;1.85;;;;;;;;;;5094850;28;20085;-72
2022/06/11 01:30:00;;;;;;;2.45;1.83;;;;;;;;;;5094871;28;20046;-73
2022/06/11 01:32:33;;;;;;;3.53;1.95;;;;;;;;;;5094416;28;20378;-72
2022/06/11 01:35:17;;;;;;;3.53;2.20;;;;;;;;;;5094885;28;20040;-72
2022/06/11 01:38:03;;;;;;;5.10;1.98;;;;;;;;;;5094286;28;20040;-72
2022/06/11 01:40:35;;;;;;;2.33;1.75;;;;;;;;;;5095992;28;20039;-72
2022/06/11 01:43:13;;;;;;;3.28;2.00;;;;;;;;;;5098556;28;20058;-72
2022/06/11 01:45:40;;;;;;;4.25;1.90;;;;;;;;;;5098676;28;20072;-72
2022/06/11 01:48:07;;;;;;;3.25;1.70;;;;;;;;;;5098159;28;20532;-72
2022/06/11 01:50:36;;;;;;;1.83;1.73;;;;;;;;;;5098607;28;20036;-72
2022/06/11 01:53:13;;;;;;;2.55;1.73;;;;;;;;;;5098031;28;20382;-72
2022/06/11 01:55:48;;;;;;;3.00;2.10;;;;;;;;;;5097717;28;20111;-72
2022/06/11 01:58:32;;;;;;;3.92;2.05;;;;;;;;;;5097857;28;20043;-72
2022/06/11 02:00:58;;;;;;;1.95;1.73;;;;;;;;;;5098532;28;20454;-72
2022/06/11 02:03:34;;;;;;;5.07;2.15;;;;;;;;;;5097589;28;20067;-72
2022/06/11 02:06:09;;;;;;;2.33;1.60;;;;;;;;;;5097089;28;20498;-72
2022/06/11 02:08:41;;;;;;;2.67;1.60;;;;;;;;;;5098077;28;20044;-72
2022/06/11 02:11:10;;;;;;;11.02;2.20;;;;;;;;;;5098265;28;20036;-72
2022/06/11 02:13:40;;;;;;;2.88;2.05;;;;;;;;;;5097368;28;20132;-72
2022/06/11 02:16:15;;;;;;;3.35;2.08;;;;;;;;;;5097691;28;20040;-72
2022/06/11 02:18:42;;;;;;;5.55;1.80;;;;;;;;;;5097784;28;20097;-73
2022/06/11 02:21:12;;;;;;;2.28;1.75;;;;;;;;;;5097276;28;20028;-72
2022/06/11 02:23:47;;;;;;;5.35;2.08;;;;;;;;;;5096200;28;20123;-72
2022/06/11 02:26:19;;;;;;;3.03;2.00;;;;;;;;;;5097790;28;20036;-72
2022/06/11 02:28:47;;;;;;;3.15;2.00;;;;;;;;;;5097067;28;20067;-72
2022/06/11 02:31:16;;;;;;;3.83;1.92;;;;;;;;;;5097309;28;20043;-72
2022/06/11 02:33:44;;;;;;;3.97;1.80;;;;;;;;;;5096983;28;20099;-72
2022/06/11 02:36:30;;;;;;;4.13;2.35;;;;;;;;;;5097073;28;20054;-72
2022/06/11 02:38:57;;;;;;;6.35;2.35;;;;;;;;;;5097100;28;20054;-72
2022/06/11 02:41:26;;;;;;;2.78;2.00;;;;;;;;;;5097423;28;20043;-72
2022/06/11 02:43:52;;;;;;;5.45;2.25;;;;;;;;;;5097073;28;20044;-72
2022/06/11 02:49:04;;;;;;;2.28;1.52;;;;;;;;;;5096503;28;20089;-72
2022/06/11 02:51:30;;;;;;;6.65;2.03;;;;;;;;;;5096722;28;20032;-72
2022/06/11 02:53:57;;;;;;;3.35;1.90;;;;;;;;;;5097053;28;20062;-72
2022/06/11 02:56:23;;;;;;;7.65;2.28;;;;;;;;;;5097237;28;20094;-72
2022/06/11 02:58:49;;;;;;;3.38;2.03;;;;;;;;;;5096243;28;20497;-72
2022/06/11 03:01:16;;;;;;;7.43;2.00;;;;;;;;;;5096792;28;20046;-72
2022/06/11 03:03:43;;;;;;;3.38;1.98;;;;;;;;;;5096318;28;20032;-72
2022/06/11 03:06:09;;;;;;;4.43;2.10;;;;;;;;;;5096514;28;20040;-72
2022/06/11 03:08:36;;;;;;;4.78;2.00;;;;;;;;;;5095359;28;20484;-72
2022/06/11 03:11:02;;;;;;;4.57;2.35;;;;;;;;;;5096507;28;20035;-72
2022/06/11 03:13:30;;;;;;;4.38;2.03;;;;;;;;;;5096532;28;20092;-72
2022/06/11 03:15:57;;;;;;;5.00;2.20;;;;;;;;;;5097105;28;20036;-72
2022/06/11 03:18:23;;;;;;;3.78;2.35;;;;;;;;;;5096337;28;20040;-72
2022/06/11 03:20:52;;;;;;;2.60;1.88;;;;;;;;;;5095977;28;20031;-72
2022/06/11 03:23:19;;;;;;;3.05;1.77;;;;;;;;;;5096216;28;20352;-72
2022/06/11 03:25:45;;;;;;;3.80;2.15;;;;;;;;;;5096328;28;20508;-72
2022/06/11 03:28:17;;;;;;;3.50;2.00;;;;;;;;;;5095941;28;20044;-72
2022/06/11 03:30:43;;;;;;;3.35;2.13;;;;;;;;;;5095969;28;20032;-72
2022/06/11 03:33:09;;;;;;;4.18;2.13;;;;;;;;;;5096223;28;20115;-72
2022/06/11 03:35:36;;;;;;;5.45;2.15;;;;;;;;;;5096329;28;20062;-72
2022/06/11 03:38:03;;;;;;;3.42;2.22;;;;;;;;;;5095667;28;20498;-72
2022/06/11 03:40:29;;;;;;;2.95;2.00;;;;;;;;;;5095748;28;20126;-72
2022/06/11 03:42:56;;;;;;;1.80;1.70;;;;;;;;;;5096084;28;20551;-72
2022/06/11 03:45:22;;;;;;;4.65;2.00;;;;;;;;;;5095650;28;20398;-72
2022/06/11 03:47:48;;;;;;;4.07;1.92;;;;;;;;;;5095899;28;20123;-72
2022/06/11 03:50:25;;;;;;;7.25;2.25;;;;;;;;;;5095422;28;20090;-72
2022/06/11 03:52:52;;;;;;;5.50;2.30;;;;;;;;;;5095768;28;20047;-72
2022/06/11 03:55:18;;;;;;;2.60;1.90;;;;;;;;;;5096098;28;20063;-72
2022/06/11 03:57:44;;;;;;;2.47;2.20;;;;;;;;;;5095142;28;20517;-72
2022/06/11 04:00:13;;;;;;;5.70;2.35;;;;;;;;;;5095291;28;20086;-72
2022/06/11 04:02:39;;;;;;;3.90;2.28;;;;;;;;;;5094886;28;20043;-72
2022/06/11 04:05:06;;;;;;;3.70;1.92;;;;;;;;;;5095910;28;20538;-72
2022/06/11 04:07:32;;;;;;;5.60;2.28;;;;;;;;;;5095197;28;20490;-72
2022/06/11 04:09:58;;;;;;;3.53;1.92;;;;;;;;;;5095448;28;20036;-72
2022/06/11 04:12:25;;;;;;;3.88;2.03;;;;;;;;;;5095133;28;20032;-72
2022/06/11 04:14:51;;;;;;;4.15;2.10;;;;;;;;;;5096220;28;20063;-72
2022/06/11 04:17:24;;;;;;;5.00;2.17;;;;;;;;;;5095314;28;20035;-72
2022/06/11 04:19:50;;;;;;;2.38;1.92;;;;;;;;;;5095388;28;20090;-72
2022/06/11 04:22:18;;;;;;;4.47;1.85;;;;;;;;;;5095539;28;20031;-72
2022/06/11 04:24:44;;;;;;;3.35;1.80;;;;;;;;;;5095236;28;20035;-72
2022/06/11 04:27:11;;;;;;;4.22;2.25;;;;;;;;;;5095383;28;20039;-72
2022/06/11 04:29:43;;;;;;;2.05;1.95;;;;;;;;;;5095154;28;20032;-72
2022/06/11 04:32:11;;;;;;;4.57;2.00;;;;;;;;;;5094792;28;20032;-72
2022/06/11 04:34:39;;;;;;;6.25;2.10;;;;;;;;;;5094942;28;20028;-72
2022/06/11 04:37:06;;;;;;;4.35;2.10;;;;;;;;;;5095006;28;20042;-72
2022/06/11 04:39:33;;;;;;;4.05;2.10;;;;;;;;;;5094827;28;20040;-72
2022/06/11 04:42:00;;;;;;;4.25;1.90;;;;;;;;;;5094730;28;20040;-72
2022/06/11 04:44:26;;;;;;;6.55;2.00;;;;;;;;;;5094983;28;20039;-72
2022/06/11 04:46:53;;;;;;;4.60;2.08;;;;;;;;;;5094594;28;20036;-72
2022/06/11 04:49:19;;;;;;;4.35;1.98;;;;;;;;;;5094933;28;20068;-72
2022/06/11 04:51:46;;;;;;;5.43;1.98;;;;;;;;;;5094373;28;20511;-72
2022/06/11 04:54:12;;;;;;;2.22;1.70;;;;;;;;;;5094504;28;20044;-72
2022/06/11 04:56:38;;;;;;;3.28;1.52;;;;;;;;;;5094827;28;20118;-72
2022/06/11 04:59:06;;;;;;;3.90;1.92;;;;;;;;;;5094839;28;20040;-72
2022/06/11 05:01:32;;;;;;;4.60;1.85;;;;;;;;;;5094643;28;20115;-72
2022/06/11 05:03:58;;;;;;;2.83;2.28;;;;;;;;;;5094941;28;20135;-72
2022/06/11 05:06:28;;;;;;;2.35;2.13;;;;;;;;;;5094882;28;20474;-72
2022/06/11 05:08:55;;;;;;;3.80;2.00;;;;;;;;;;5095086;28;20032;-72
2022/06/11 05:11:21;;;;;;;3.20;1.85;;;;;;;;;;5094712;28;20089;-72
2022/06/11 05:13:47;;;;;;;3.85;1.70;;;;;;;;;;5095166;28;20036;-72
2022/06/11 05:16:15;;;;;;;3.80;2.30;;;;;;;;;;5099627;28;20474;-72
2022/06/11 05:18:41;;;;;;;3.67;2.08;;;;;;;;;;5098843;28;20066;-72
2022/06/11 05:21:07;;;;;;;2.58;2.00;;;;;;;;;;5098550;28;20043;-72
2022/06/11 05:23:33;;;;;;;3.88;2.05;;;;;;;;;;5098698;28;20040;-72
2022/06/11 05:26:00;;;;;;;4.50;1.73;;;;;;;;;;5098975;28;20474;-72
2022/06/11 05:28:31;;;;;;;3.45;1.75;;;;;;;;;;5098850;28;20059;-72
2022/06/11 05:30:57;;;;;;;5.60;1.92;;;;;;;;;;5098543;28;20035;-72
2022/06/11 05:33:24;;;;;;;2.15;1.60;;;;;;;;;;5098482;28;20408;-72
2022/06/11 05:35:50;;;;;;;4.50;1.65;;;;;;;;;;5098922;28;20501;-72
2022/06/11 05:38:19;;;;;;;3.63;1.60;;;;;;;;;;5098318;28;20040;-72
2022/06/11 05:40:47;;;;;;;3.03;1.58;;;;;;;;;;5098800;28;20030;-72
2022/06/11 05:43:13;;;;;;;6.07;1.63;;;;;;;;;;5098925;28;20063;-72
2022/06/11 05:45:44;;;;;;;4.68;1.60;;;;;;;;;;5098611;28;20046;-72
2022/06/11 05:48:11;;;;;;;2.50;1.70;;;;;;;;;;5098545;28;20070;-73
2022/06/11 05:50:39;;;;;;;2.53;1.38;;;;;;;;;;5098320;28;20089;-73
2022/06/11 05:53:07;;;;;;;4.70;1.77;;;;;;;;;;5098220;28;20036;-72
2022/06/11 05:55:34;;;;;;;4.50;1.70;;;;;;;;;;5098976;28;20463;-73
2022/06/11 05:58:02;;;;;;;5.60;1.58;;;;;;;;;;5098111;28;20044;-72
2022/06/11 06:00:28;;;;;;;3.28;1.30;;;;;;;;;;5098141;28;20489;-72
2022/06/11 06:02:54;;;;;;;3.10;1.42;;;;;;;;;;5097619;28;20036;-73
2022/06/11 06:05:23;;;;;;;6.00;1.30;;;;;;;;;;5098036;28;20077;-72
2022/06/11 06:07:50;;;;;;;2.15;1.30;;;;;;;;;;5097783;28;20051;-73
2022/06/11 06:10:16;;;;;;;1.90;1.25;;;;;;;;;;5097483;28;20538;-72
2022/06/11 06:12:42;;;;;;;2.72;1.20;;;;;;;;;;5097674;28;20042;-73
2022/06/11 06:15:09;;;;;;;1.80;1.23;;;;;;;;;;5097809;28;20062;-73
2022/06/11 06:17:36;;;;;;;1.50;1.40;;;;;;;;;;5097546;28;20069;-73
2022/06/11 06:20:02;;;;;;;3.80;1.23;;;;;;;;;;5097405;28;20040;-73
2022/06/11 06:22:28;;;;;;;4.95;1.63;;;;;;;;;;5097459;28;20085;-73
2022/06/11 06:24:55;;;;;;;2.10;1.40;;;;;;;;;;5095875;28;20430;-73
2022/06/11 06:27:21;;;;;;;1.90;1.10;;;;;;;;;;5095084;28;20024;-73
2022/06/11 06:29:47;;;;;;;2.97;1.08;;;;;;;;;;5096408;28;20036;-73
2022/06/11 06:32:13;;;;;;;1.85;1.17;;;;;;;;;;5095987;28;20119;-70
2022/06/11 06:34:39;;;;;;;1.35;1.05;;;;;;;;;;5096170;28;20119;-71
2022/06/11 06:37:05;;;;;;;3.17;1.17;;;;;;;;;;5096319;28;20040;-71
2022/06/11 06:39:32;;;;;;;2.40;1.50;;;;;;;;;;5100414;28;20096;-73
2022/06/11 06:41:58;;;;;;;2.15;1.05;;;;;;;;;;5096550;28;20099;-74
2022/06/11 06:44:25;;;;;;;1.83;1.10;;;;;;;;;;5096631;28;20040;-74
2022/06/11 06:46:51;;;;;;;2.10;1.10;;;;;;;;;;5103986;28;20128;-74
2022/06/11 06:49:17;;;;;;;1.45;1.10;;;;;;;;;;5097805;28;20393;-73
2022/06/11 06:51:44;;;;;;;2.83;1.10;;;;;;;;;;5092469;28;20038;-73
2022/06/11 06:54:10;;;;;;;2.10;1.00;;;;;;;;;;5097085;28;20028;-72
2022/06/11 06:56:36;;;;;;;2.15;0.93;;;;;;;;;;5097256;28;20090;-73
2022/06/11 06:59:02;;;;;;;3.50;1.40;;;;;;;;;;5096972;28;20079;-73
2022/06/11 07:01:29;;;;;;;1.20;1.00;;;;;;;;;;5096866;28;20064;-73
2022/06/11 07:03:55;;;;;;;1.77;1.00;;;;;;;;;;5096713;28;20077;-73
2022/06/11 07:06:22;;;;;;;4.40;1.50;;;;;;;;;;5096933;28;20047;-73
2022/06/11 07:08:52;;;;;;;1.98;1.05;;;;;;;;;;5096680;28;20040;-73
2022/06/11 07:11:19;;;;;;;1.42;1.00;;;;;;;;;;5095697;28;20115;-73
2022/06/11 07:13:45;;;;;;;4.20;1.10;;;;;;;;;;5096865;28;20040;-72
2022/06/11 07:16:12;;;;;;;3.75;1.38;;;;;;;;;;5097181;28;20180;-73
2022/06/11 07:18:58;;;;;;;2.33;1.10;;;;;;;;;;5096549;28;20078;-73
2022/06/11 07:21:29;;;;;;;5.05;1.52;;;;;;;;;;5096640;28;20043;-73
2022/06/11 07:23:59;;;;;;;2.28;1.42;;;;;;;;;;5096997;28;20471;-73
2022/06/11 07:26:28;;;;;;;2.20;1.40;;;;;;;;;;5096490;28;20043;-73
2022/06/11 07:28:57;;;;;;;2.33;1.20;;;;;;;;;;5096524;28;20036;-72
2022/06/11 07:31:24;;;;;;;2.03;0.98;;;;;;;;;;5096437;28;20516;-73
2022/06/11 07:33:50;;;;;;;1.63;1.00;;;;;;;;;;5096610;28;20115;-73
2022/06/11 07:36:18;;;;;;;1.38;0.88;;;;;;;;;;5095327;28;20506;-73
2022/06/11 07:38:44;;;;;;;2.00;1.00;;;;;;;;;;5095447;28;20062;-73
2022/06/11 07:41:10;;;;;;;1.85;0.80;;;;;;;;;;5096308;28;20071;-72
2022/06/11 07:43:36;;;;;;;1.35;0.80;;;;;;;;;;5095693;28;20063;-72
2022/06/11 07:46:02;;;;;;;3.65;1.20;;;;;;;;;;5095917;28;20047;-72
2022/06/11 07:48:28;;;;;;;4.18;1.15;;;;;;;;;;5111266;28;20546;-72
2022/06/11 07:50:55;;;;;;;3.35;1.15;;;;;;;;;;5113147;28;20122;-71
2022/06/11 07:53:22;;;;;;;3.70;1.27;;;;;;;;;;5095153;28;20375;-71
2022/06/11 07:55:50;;;;;;;1.80;1.08;;;;;;;;;;5099723;28;20036;-71
2022/06/11 07:58:17;;;;;;;4.05;1.17;;;;;;;;;;5095599;28;20042;-71
2022/06/11 08:00:46;;;;;;;3.13;1.30;;;;;;;;;;5095345;28;20040;-71
2022/06/11 08:03:15;;;;;;;2.33;1.10;;;;;;;;;;5095311;28;20050;-71
2022/06/11 08:05:42;;;;;;;2.47;1.20;;;;;;;;;;5095062;28;20142;-71
2022/06/11 08:08:09;;;;;;;1.25;0.80;;;;;;;;;;5095147;28;20040;-71
2022/06/11 08:10:36;;;;;;;2.03;1.20;;;;;;;;;;5095141;28;20038;-71
2022/06/11 08:13:02;;;;;;;1.73;1.00;;;;;;;;;;5094170;28;20040;-71
2022/06/11 08:15:29;;;;;;;4.00;1.20;;;;;;;;;;5095239;28;20048;-72
2022/06/11 08:17:55;;;;;;;6.55;1.40;;;;;;;;;;5101343;28;20516;-72
2022/06/11 08:20:23;;;;;;;5.07;1.10;;;;;;;;;;5115481;28;20145;-71
2022/06/11 08:22:50;;;;;;;2.65;1.08;;;;;;;;;;5101594;28;20125;-72
2022/06/11 08:25:17;;;;;;;3.05;1.00;;;;;;;;;;5095266;28;20040;-71
2022/06/11 08:27:43;;;;;;;4.75;1.00;;;;;;;;;;5094883;28;20032;-71
2022/06/11 08:30:12;;;;;;;2.15;1.23;;;;;;;;;;5095159;28;20059;-71
2022/06/11 08:32:38;;;;;;;3.75;1.33;;;;;;;;;;5095113;28;20474;-71
2022/06/11 08:35:05;;;;;;;1.83;1.02;;;;;;;;;;5109198;28;20481;-71
2022/06/11 08:37:31;;;;;;;2.60;1.13;;;;;;;;;;5115353;28;20038;-71
2022/06/11 08:39:57;;;;;;;2.28;1.20;;;;;;;;;;5115545;28;20047;-71
2022/06/11 08:42:40;;;;;;;3.47;1.08;;;;;;;;;;5115039;28;20123;-71
2022/06/11 08:45:13;;;;;;;1.45;0.85;;;;;;;;;;5104554;28;20052;-71
2022/06/11 08:47:44;;;;;;;2.63;1.10;;;;;;;;;;5092135;28;20043;-71
2022/06/11 08:50:13;;;;;;;2.05;1.20;;;;;;;;;;5093682;28;20044;-71
2022/06/11 08:52:39;;;;;;;3.13;1.00;;;;;;;;;;5086526;28;20055;-71
2022/06/11 08:55:06;;;;;;;5.10;0.68;;;;;;;;;;5092751;28;20066;-71
2022/06/11 08:57:32;;;;;;;1.73;0.70;;;;;;;;;;5093207;28;20059;-72
2022/06/11 08:59:59;;;;;;;0.88;0.73;;;;;;;;;;5093641;28;20105;-71
2022/06/11 09:02:37;;;;;;;1.88;0.75;;;;;;;;;;5098496;28;20047;-71
2022/06/11 09:05:07;;;;;;;1.05;0.70;;;;;;;;;;5104526;28;20042;-71
2022/06/11 09:07:36;;;;;;;3.30;0.80;;;;;;;;;;5101910;28;20035;-71
2022/06/11 09:10:07;;;;;;;1.25;0.60;;;;;;;;;;5108785;28;20569;-74
2022/06/11 09:12:33;;;;;;;1.83;0.60;;;;;;;;;;5094221;28;20046;-71
2022/06/11 09:14:59;;;;;;;2.50;0.82;;;;;;;;;;5092709;28;20501;-70
2022/06/11 09:17:33;;;;;;;1.63;0.80;;;;;;;;;;5095298;28;20043;-70
2022/06/11 09:20:09;;;;;;;3.08;1.70;;;;;;;;;;5091908;28;20055;-70
2022/06/11 09:22:45;;;;;;;0.80;0.75;;;;;;;;;;5091400;28;20047;-71
2022/06/11 09:25:27;;;;;;;1.80;1.25;;;;;;;;;;5092028;28;20043;-71
2022/06/11 09:28:01;;;;;;;2.35;0.80;;;;;;;;;;5091774;28;20739;-70
2022/06/11 09:30:41;;;;;;;1.15;0.80;;;;;;;;;;5093314;28;20119;-70
2022/06/11 09:33:13;;;;;;;2.90;1.00;;;;;;;;;;5089240;28;20033;-71
2022/06/11 09:36:06;;;;;;;2.85;1.10;;;;;;;;;;5089998;28;20039;-71
2022/06/11 09:38:38;;;;;;;1.63;0.90;;;;;;;;;;5088594;28;20056;-71
2022/06/11 09:41:14;;;;;;;1.25;0.90;;;;;;;;;;5096908;28;20145;-71
2022/06/11 09:43:56;;;;;;;0.82;0.52;;;;;;;;;;5089109;28;20382;-71
2022/06/11 09:46:26;;;;;;;4.38;1.00;;;;;;;;;;5097845;28;20048;-71
2022/06/11 09:49:04;;;;;;;3.28;1.40;;;;;;;;;;5092403;28;20052;-71
2022/06/11 09:51:49;;;;;;;1.27;0.80;;;;;;;;;;5091401;28;20551;-70
2022/06/11 09:54:30;;;;;;;3.40;1.00;;;;;;;;;;5092155;28;20028;-70
2022/06/11 09:56:56;;;;;;;;;;;;;;;;;;5092049;28;20115;-70
2022/06/11 09:59:40;;;;;;;2.67;1.00;;;;;;;;;;5093075;28;20010;-70
2022/06/11 10:02:30;;;;;;;4.03;1.40;;;;;;;;;;5094083;28;20048;-70
2022/06/11 10:04:58;;;;;;;2.80;1.05;;;;;;;;;;5096727;28;20032;-70
2022/06/11 10:07:26;;;;;;;2.95;0.80;;;;;;;;;;5095441;28;20308;-69
2022/06/11 10:09:56;;;;;;;1.60;0.80;;;;;;;;;;5095554;28;20044;-70
2022/06/11 10:12:23;;;;;;;2.05;0.70;;;;;;;;;;5101534;28;20084;-70
2022/06/11 10:14:50;;;;;;;0.98;0.77;;;;;;;;;;5100816;28;20040;-70
2022/06/11 10:17:23;;;;;;;2.78;1.00;;;;;;;;;;5097191;28;20118;-70
2022/06/11 10:20:07;;;;;;;1.70;1.10;;;;;;;;;;5097415;28;20065;-70
2022/06/11 10:22:37;;;;;;;1.88;0.90;;;;;;;;;;5097344;28;20032;-70
2022/06/11 10:25:14;;;;;;;1.40;0.90;;;;;;;;;;5096730;28;20031;-70
2022/06/11 10:27:44;;;;;;;2.75;1.00;;;;;;;;;;5097693;28;20504;-71
2022/06/11 10:30:34;;;;;;;1.63;0.93;;;;;;;;;;5110948;28;20037;-70
2022/06/11 10:33:02;;;;;;;2.08;0.90;;;;;;;;;;5103337;28;20043;-70
2022/06/11 10:35:32;;;;;;;2.28;1.08;;;;;;;;;;5097487;28;20070;-70
2022/06/11 10:38:06;;;;;;;2.65;0.90;;;;;;;;;;5097372;28;20467;-70
2022/06/11 10:40:34;;;;;;;3.38;0.85;;;;;;;;;;5100639;28;20048;-70
2022/06/11 10:43:13;;;;;;;2.13;1.17;;;;;;;;;;5111657;28;20031;-69
2022/06/11 10:45:39;;;;;;;6.07;1.10;;;;;;;;;;5088642;28;20044;-70
2022/06/11 10:48:13;;;;;;;3.38;1.23;;;;;;;;;;5096012;28;20521;-70
2022/06/11 10:50:39;;;;;;;4.18;1.20;;;;;;;;;;5095561;28;20036;-70
2022/06/11 10:53:08;;;;;;;2.70;0.88;;;;;;;;;;5095757;28;20056;-70
2022/06/11 10:55:34;;;;;;;1.13;1.02;;;;;;;;;;5095761;28;20044;-70
2022/06/11 10:58:03;;;;;;;2.92;1.23;;;;;;;;;;5094461;28;20054;-70
2022/06/11 11:00:35;;;;;;;3.45;1.00;;;;;;;;;;5095279;28;20036;-70
2022/06/11 11:03:04;;;;;;;2.22;1.00;;;;;;;;;;5096939;28;20471;-70
2022/06/11 11:06:00;;;;;;;2.60;1.00;;;;;;;;;;5095595;28;20036;-70
2022/06/11 11:08:26;;;;;;;1.05;0.93;;;;;;;;;;5073123;28;20071;-69
2022/06/11 11:10:53;;;;;;;1.83;1.30;;;;;;;;;;5096510;28;20040;-70
2022/06/11 11:13:34;;;;;;;2.85;1.10;;;;;;;;;;5095143;28;20040;-70
2022/06/11 11:16:13;;;;;;;2.75;0.90;;;;;;;;;;5097052;28;20032;-69
2022/06/11 11:18:42;;;;;;;3.13;1.10;;;;;;;;;;5094861;28;20517;-69
2022/06/11 11:21:38;;;;;;;2.45;1.00;;;;;;;;;;5094504;28;20123;-69
2022/06/11 11:24:07;;;;;;;4.50;0.90;;;;;;;;;;5078644;28;20486;-70
2022/06/11 11:26:37;;;;;;;0.80;0.80;;;;;;;;;;5094743;28;20510;-70
2022/06/11 11:29:11;;;;;;;1.27;0.90;;;;;;;;;;5094406;28;20563;-70
2022/06/11 11:32:04;;;;;;;2.35;1.00;;;;;;;;;;5095529;28;20482;-70
2022/06/11 11:34:34;;;;;;;4.55;0.90;;;;;;;;;;5093333;28;20066;-70
2022/06/11 11:37:13;;;;;;;1.58;0.88;;;;;;;;;;5094868;28;20043;-70
2022/06/11 11:39:48;;;;;;;2.67;0.90;;;;;;;;;;5095087;28;20050;-70
2022/06/11 11:42:18;;;;;;;1.05;0.90;;;;;;;;;;5093941;28;20039;-70
2022/06/11 11:44:57;;;;;;;2.87;0.70;;;;;;;;;;5094173;28;20092;-70
2022/06/11 11:47:41;;;;;;;3.35;0.95;;;;;;;;;;5094156;28;20047;-70
2022/06/11 11:50:17;;;;;;;1.85;0.70;;;;;;;;;;5094314;28;20044;-70
2022/06/11 11:52:53;;;;;;;2.05;1.00;;;;;;;;;;5094051;28;20048;-70
2022/06/11 11:55:28;;;;;;;2.67;1.15;;;;;;;;;;5094538;28;20066;-70
2022/06/11 11:57:56;;;;;;;3.58;1.20;;;;;;;;;;5092540;28;20056;-70
2022/06/11 12:00:32;;;;;;;1.95;0.88;;;;;;;;;;5095652;28;20137;-70
2022/06/11 12:03:03;;;;;;;1.45;0.95;;;;;;;;;;5094178;28;20039;-70
2022/06/11 12:05:31;;;;;;;1.10;0.82;;;;;;;;;;5095121;28;20040;-70
2022/06/11 12:07:58;;;;;;;2.90;0.98;;;;;;;;;;5094878;28;20031;-70
2022/06/11 12:10:45;;;;;;;7.53;1.10;;;;;;;;;;5095709;28;20059;-71
2022/06/11 12:13:22;;;;;;;1.65;1.00;;;;;;;;;;5100971;28;20068;-70
2022/06/11 12:15:58;;;;;;;4.60;1.05;;;;;;;;;;5103024;28;20035;-70
2022/06/11 12:18:30;;;;;;;2.72;1.08;;;;;;;;;;5103724;28;20035;-71
2022/06/11 12:20:59;;;;;;;1.58;0.82;;;;;;;;;;5109670;28;20040;-73
2022/06/11 12:23:37;;;;;;;4.90;1.20;;;;;;;;;;5094939;28;20268;-70
2022/06/11 12:26:05;;;;;;;1.13;0.95;;;;;;;;;;5094779;28;20047;-71
2022/06/11 12:28:41;;;;;;;3.85;0.90;;;;;;;;;;5096438;28;20047;-71
2022/06/11 12:31:09;;;;;;;3.75;1.20;;;;;;;;;;5096684;28;20031;-73
2022/06/11 12:33:36;;;;;;;5.43;1.30;;;;;;;;;;5095020;28;20116;-72
2022/06/11 12:36:11;;;;;;;1.83;1.30;;;;;;;;;;5101182;28;20089;-72
2022/06/11 12:38:40;;;;;;;0.95;0.80;;;;;;;;;;5096002;28;20394;-72
2022/06/11 12:41:12;;;;;;;1.15;0.73;;;;;;;;;;5093690;28;20093;-72
2022/06/11 12:44:11;;;;;;;1.35;0.75;;;;;;;;;;5095299;28;20044;-71
2022/06/11 12:46:41;;;;;;;3.03;0.73;;;;;;;;;;5061250;28;20032;-69
2022/06/11 12:49:17;;;;;;;1.27;0.90;;;;;;;;;;5095443;28;20072;-70
2022/06/11 12:51:49;;;;;;;3.97;1.35;;;;;;;;;;5094858;28;20044;-69
2022/06/11 12:54:15;;;;;;;1.90;1.13;;;;;;;;;;5094190;28;20048;-69
2022/06/11 12:56:44;;;;;;;2.03;0.77;;;;;;;;;;5091966;28;20055;-69
2022/06/11 12:59:19;;;;;;;1.25;1.05;;;;;;;;;;5093977;28;20104;-70
2022/06/11 13:01:52;;;;;;;2.45;1.10;;;;;;;;;;5100733;28;20031;-70
2022/06/11 13:04:30;;;;;;;2.05;0.90;;;;;;;;;;5092585;28;20036;-70
2022/06/11 13:07:19;;;;;;;2.42;1.02;;;;;;;;;;5095942;28;20562;-70
2022/06/11 13:09:58;;;;;;;1.55;1.00;;;;;;;;;;5086113;28;20505;-70
2022/06/11 13:12:33;;;;;;;3.60;0.77;;;;;;;;;;5093303;28;20089;-70
2022/06/11 13:15:14;;;;;;;2.60;0.90;;;;;;;;;;5091456;28;20036;-70
2022/06/11 13:17:43;;;;;;;6.88;1.05;;;;;;;;;;5082743;28;20039;-70
2022/06/11 13:20:17;;;;;;;1.60;0.90;;;;;;;;;;5083320;28;20047;-67
2022/06/11 13:23:01;;;;;;;3.03;1.08;;;;;;;;;;5093472;28;20382;-67
2022/06/11 13:25:36;;;;;;;1.98;0.98;;;;;;;;;;5093443;28;20060;-68
2022/06/11 13:28:12;;;;;;;3.83;0.90;;;;;;;;;;5092994;28;20097;-68
2022/06/11 13:30:50;;;;;;;1.27;1.05;;;;;;;;;;5092883;28;20048;-68
2022/06/11 13:33:16;;;;;;;0.77;0.70;;;;;;;;;;5092675;28;20036;-68
2022/06/11 13:35:49;;;;;;;3.70;0.80;;;;;;;;;;5095316;28;20040;-67
2022/06/11 13:38:21;;;;;;;1.60;0.80;;;;;;;;;;5096540;28;20390;-67
2022/06/11 13:41:23;;;;;;;3.00;1.42;;;;;;;;;;5097237;28;20035;-67
2022/06/11 13:44:00;;;;;;;3.45;0.88;;;;;;;;;;5034594;28;20052;-68
2022/06/11 13:46:27;;;;;;;1.88;0.93;;;;;;;;;;5089471;28;21336;-68
2022/06/11 13:48:56;;;;;;;3.42;0.90;;;;;;;;;;5105013;28;20043;-68
2022/06/11 13:51:23;;;;;;;1.65;0.90;;;;;;;;;;5097451;28;20043;-67
2022/06/11 13:56:45;;;;;;;1.40;0.90;;;;;;;;;;5095964;28;20043;-68
2022/06/11 13:59:11;;;;;;;0.60;0.60;;;;;;;;;;5095991;28;20059;-67
2022/06/11 14:01:37;;;;;;;1.25;0.90;;;;;;;;;;5104263;28;20031;-67
2022/06/11 14:04:15;;;;;;;2.25;0.80;;;;;;;;;;5095493;28;20039;-67
2022/06/11 14:06:42;;;;;;;1.63;0.70;;;;;;;;;;5093037;28;20489;-67
2022/06/11 14:12:05;;;;;;;1.20;0.82;;;;;;;;;;5092999;28;20047;-67
2022/06/11 14:14:32;;;;;;;0.70;0.70;;;;;;;;;;5099072;28;20032;-68
2022/06/11 14:16:58;;;;;;;1.63;0.90;;;;;;;;;;5099553;28;20028;-67
2022/06/11 14:19:24;;;;;;;0.68;0.68;;;;;;;;;;5095857;28;20044;-68
2022/06/11 14:21:52;;;;;;;3.85;1.00;;;;;;;;;;5096351;28;20027;-70
2022/06/11 14:24:37;;;;;;;2.25;0.98;;;;;;;;;;5095132;28;20056;-70
2022/06/11 14:27:04;;;;;;;1.17;0.90;;;;;;;;;;5093642;28;20039;-70
2022/06/11 14:29:34;;;;;;;3.92;0.70;;;;;;;;;;5095563;28;20075;-70
2022/06/11 14:32:10;;;;;;;2.45;1.00;;;;;;;;;;5094215;28;20119;-70
2022/06/11 14:34:37;;;;;;;1.17;0.80;;;;;;;;;;5090461;28;20032;-70
2022/06/11 14:37:15;;;;;;;1.55;0.77;;;;;;;;;;5091778;28;20048;-70
2022/06/11 14:39:42;;;;;;;1.80;0.93;;;;;;;;;;5086197;28;20352;-69
2022/06/11 14:42:11;;;;;;;2.58;0.80;;;;;;;;;;5095144;28;20035;-70
2022/06/11 14:44:38;;;;;;;2.75;0.90;;;;;;;;;;5095114;28;20050;-69
2022/06/11 14:47:04;;;;;;;2.17;1.10;;;;;;;;;;5094714;28;20036;-70
2022/06/11 14:49:37;;;;;;;2.08;0.82;;;;;;;;;;5094927;28;20084;-70
2022/06/11 14:52:07;;;;;;;1.92;0.80;;;;;;;;;;5101338;28;20036;-71
2022/06/11 14:54:33;;;;;;;1.58;0.90;;;;;;;;;;5105266;28;20031;-70
2022/06/11 14:57:14;;;;;;;3.47;0.80;;;;;;;;;;5108969;28;20031;-70
2022/06/11 15:00:02;;;;;;;1.52;0.77;;;;;;;;;;5076245;28;20139;-70
2022/06/11 15:02:43;;;;;;;1.70;0.95;;;;;;;;;;5081725;28;20105;-69
2022/06/11 15:05:27;;;;;;;2.47;0.70;;;;;;;;;;5092270;28;20064;-69
2022/06/11 15:07:59;;;;;;;0.90;0.70;;;;;;;;;;5093860;28;20039;-69
2022/06/11 15:10:39;;;;;;;2.60;0.60;;;;;;;;;;5076507;28;20115;-69
2022/06/11 15:13:12;;;;;;;2.28;0.80;;;;;;;;;;5090343;28;20494;-69